sensor_id;sensor_type;location;lat;lon;timestamp;temperature;humidity
15556;DHT22;7879;48.660;9.116;2023-05-19T00:01:13;12.20;99.90
15556;DHT22;7879;48.660;9.116;2023-05-19T00:03:54;12.20;99.90
15556;DHT22;7879;48.660;9.116;2023-05-19T00:06:25;12.20;99.90
15556;DHT22;7879;48.660;9.116;2023-05-19T00:08:59;12.10;99.90
15556;DHT22;7879;48.660;9.116;2023-05-19T00:11:27;12.20;99.90
15556;DHT22;7879;48.660;9.116;2023-05-19T00:13:56;12.20;99.90
15556;DHT22;7879;48.660;9.116;2023-05-19T00:16:25;12.20;99.90
15556;DHT22;7879;48.660;9.116;2023-05-19T00:18:52;12.20;99.90
15556;DHT22;7879;48.660;9.116;2023-05-19T00:21:20;12.10;99.90
15556;DHT22;7879;48.660;9.116;2023-05-19T00:23:47;12.10;99.90
15556;DHT22;7879;48.660;9.116;2023-05-19T00:26:14;12.10;99.90
15556;DHT22;7879;48.660;9.116;2023-05-19T00:28:41;12.10;99.90
15556;DHT22;7879;48.660;9.116;2023-05-19T00:31:08;12.00;99.90
15556;DHT22;7879;48.660;9.116;2023-05-19T00:33:34;12.00;99.90
15556;DHT22;7879;48.660;9.116;2023-05-19T00:36:02;12.00;99.90
15556;DHT22;7879;48.660;9.116;2023-05-19T00:38:33;11.90;99.90
15556;DHT22;7879;48.660;9.116;2023-05-19T00:41:02;11.90;99.90
15556;DHT22;7879;48.660;9.116;2023-05-19T00:43:29;11.80;99.90
15556;DHT22;7879;48.660;9.116;2023-05-19T00:45:56;11.80;99.90
15556;DHT22;7879;48.660;9.116;2023-05-19T00:48:26;11.80;99.90
15556;DHT22;7879;48.660;9.116;2023-05-19T00:50:55;11.80;99.90
15556;DHT22;7879;48.660;9.116;2023-05-19T00:53:28;11.70;99.90
15556;DHT22;7879;48.660;9.116;2023-05-19T00:55:55;11.70;99.90
15556;DHT22;7879;48.660;9.116;2023-05-19T00:58:23;11.70;99.90
15556;DHT22;7879;48.660;9.116;2023-05-19T01:00:58;11.80;99.90
15556;DHT22;7879;48.660;9.116;2023-05-19T01:03:31;11.70;99.90
15556;DHT22;7879;48.660;9.116;2023-05-19T01:06:01;11.70;99.90
15556;DHT22;7879;48.660;9.116;2023-05-19T01:08:31;11.70;99.90
15556;DHT22;7879;48.660;9.116;2023-05-19T01:10:59;11.70;99.90
15556;DHT22;7879;48.660;9.116;2023-05-19T01:13:27;11.70;99.90
15556;DHT22;7879;48.660;9.116;2023-05-19T01:16:08;11.70;99.90
15556;DHT22;7879;48.660;9.116;2023-05-19T01:19:00;11.60;99.90
15556;DHT22;7879;48.660;9.116;2023-05-19T01:32:08;11.60;99.90
15556;DHT22;7879;48.660;9.116;2023-05-19T01:34:40;11.50;99.90
15556;DHT22;7879;48.660;9.116;2023-05-19T01:37:08;11.50;99.90
15556;DHT22;7879;48.660;9.116;2023-05-19T01:39:36;11.50;99.90
15556;DHT22;7879;48.660;9.116;2023-05-19T01:42:04;11.40;99.90
15556;DHT22;7879;48.660;9.116;2023-05-19T01:44:32;11.40;99.90
15556;DHT22;7879;48.660;9.116;2023-05-19T01:47:00;11.40;99.90
15556;DHT22;7879;48.660;9.116;2023-05-19T01:49:27;11.30;99.90
15556;DHT22;7879;48.660;9.116;2023-05-19T01:51:55;11.30;99.90
15556;DHT22;7879;48.660;9.116;2023-05-19T01:54:22;11.30;99.90
15556;DHT22;7879;48.660;9.116;2023-05-19T01:57:16;11.20;99.90
15556;DHT22;7879;48.660;9.116;2023-05-19T02:08:36;11.20;99.90
15556;DHT22;7879;48.660;9.116;2023-05-19T02:11:13;11.10;99.90
15556;DHT22;7879;48.660;9.116;2023-05-19T02:13:43;11.20;99.90
15556;DHT22;7879;48.660;9.116;2023-05-19T02:16:10;11.10;99.90
15556;DHT22;7879;48.660;9.116;2023-05-19T02:18:39;11.20;99.90
15556;DHT22;7879;48.660;9.116;2023-05-19T02:21:11;11.20;99.90
15556;DHT22;7879;48.660;9.116;2023-05-19T02:23:40;11.10;99.90
15556;DHT22;7879;48.660;9.116;2023-05-19T02:26:07;11.20;99.90
15556;DHT22;7879;48.660;9.116;2023-05-19T02:28:34;11.20;99.90
15556;DHT22;7879;48.660;9.116;2023-05-19T02:31:02;11.10;99.90
15556;DHT22;7879;48.660;9.116;2023-05-19T02:33:30;11.20;99.90
15556;DHT22;7879;48.660;9.116;2023-05-19T02:35:57;11.20;99.90
15556;DHT22;7879;48.660;9.116;2023-05-19T02:38:24;11.20;99.90
15556;DHT22;7879;48.660;9.116;2023-05-19T02:40:51;11.20;99.90
15556;DHT22;7879;48.660;9.116;2023-05-19T02:43:19;11.10;99.90
15556;DHT22;7879;48.660;9.116;2023-05-19T02:45:45;11.10;99.90
15556;DHT22;7879;48.660;9.116;2023-05-19T02:48:12;11.20;99.90
15556;DHT22;7879;48.660;9.116;2023-05-19T02:50:39;11.20;99.90
15556;DHT22;7879;48.660;9.116;2023-05-19T02:53:06;11.10;99.90
15556;DHT22;7879;48.660;9.116;2023-05-19T02:55:33;11.10;99.90
15556;DHT22;7879;48.660;9.116;2023-05-19T02:58:00;11.10;99.90
15556;DHT22;7879;48.660;9.116;2023-05-19T03:00:26;11.10;99.90
15556;DHT22;7879;48.660;9.116;2023-05-19T03:02:53;11.00;99.90
15556;DHT22;7879;48.660;9.116;2023-05-19T03:05:21;11.10;99.90
15556;DHT22;7879;48.660;9.116;2023-05-19T03:07:48;11.00;99.90
15556;DHT22;7879;48.660;9.116;2023-05-19T03:10:14;11.00;99.90
15556;DHT22;7879;48.660;9.116;2023-05-19T03:12:41;11.00;99.90
15556;DHT22;7879;48.660;9.116;2023-05-19T03:15:08;11.00;99.90
15556;DHT22;7879;48.660;9.116;2023-05-19T03:17:35;11.00;99.90
15556;DHT22;7879;48.660;9.116;2023-05-19T03:20:02;11.00;99.90
15556;DHT22;7879;48.660;9.116;2023-05-19T03:22:30;11.00;99.90
15556;DHT22;7879;48.660;9.116;2023-05-19T03:24:57;10.90;99.90
15556;DHT22;7879;48.660;9.116;2023-05-19T03:27:24;10.90;99.90
15556;DHT22;7879;48.660;9.116;2023-05-19T03:29:51;10.90;99.90
15556;DHT22;7879;48.660;9.116;2023-05-19T03:32:19;10.90;99.90
15556;DHT22;7879;48.660;9.116;2023-05-19T03:34:46;10.90;99.90
15556;DHT22;7879;48.660;9.116;2023-05-19T03:37:13;10.90;99.90
15556;DHT22;7879;48.660;9.116;2023-05-19T03:39:40;10.90;99.90
15556;DHT22;7879;48.660;9.116;2023-05-19T03:42:07;10.90;99.90
15556;DHT22;7879;48.660;9.116;2023-05-19T03:44:34;10.90;99.90
15556;DHT22;7879;48.660;9.116;2023-05-19T03:47:01;10.90;99.90
15556;DHT22;7879;48.660;9.116;2023-05-19T03:49:27;10.90;99.90
15556;DHT22;7879;48.660;9.116;2023-05-19T03:51:54;10.90;99.90
15556;DHT22;7879;48.660;9.116;2023-05-19T03:54:21;10.90;99.90
15556;DHT22;7879;48.660;9.116;2023-05-19T03:56:48;10.90;99.90
15556;DHT22;7879;48.660;9.116;2023-05-19T03:59:15;10.90;99.90
15556;DHT22;7879;48.660;9.116;2023-05-19T04:01:42;10.80;99.90
15556;DHT22;7879;48.660;9.116;2023-05-19T04:04:08;10.80;99.90
15556;DHT22;7879;48.660;9.116;2023-05-19T04:06:35;10.70;99.90
15556;DHT22;7879;48.660;9.116;2023-05-19T04:09:10;10.70;99.90
15556;DHT22;7879;48.660;9.116;2023-05-19T04:11:39;10.60;99.90
15556;DHT22;7879;48.660;9.116;2023-05-19T04:14:06;10.70;99.90
15556;DHT22;7879;48.660;9.116;2023-05-19T04:16:34;10.50;99.90
15556;DHT22;7879;48.660;9.116;2023-05-19T04:19:01;10.50;99.90
15556;DHT22;7879;48.660;9.116;2023-05-19T04:21:28;10.50;99.90
15556;DHT22;7879;48.660;9.116;2023-05-19T04:23:54;10.50;99.90
15556;DHT22;7879;48.660;9.116;2023-05-19T04:26:21;10.50;99.90
15556;DHT22;7879;48.660;9.116;2023-05-19T04:28:50;10.40;99.90
15556;DHT22;7879;48.660;9.116;2023-05-19T04:31:17;10.40;99.90
15556;DHT22;7879;48.660;9.116;2023-05-19T04:33:46;10.40;99.90
15556;DHT22;7879;48.660;9.116;2023-05-19T04:36:13;10.40;99.90
15556;DHT22;7879;48.660;9.116;2023-05-19T04:38:42;10.40;99.90
15556;DHT22;7879;48.660;9.116;2023-05-19T04:41:12;10.40;99.90
15556;DHT22;7879;48.660;9.116;2023-05-19T04:43:39;10.40;99.90
15556;DHT22;7879;48.660;9.116;2023-05-19T04:46:10;10.50;99.90
15556;DHT22;7879;48.660;9.116;2023-05-19T04:48:39;10.50;99.90
15556;DHT22;7879;48.660;9.116;2023-05-19T04:51:07;10.50;99.90
15556;DHT22;7879;48.660;9.116;2023-05-19T04:53:33;10.50;99.90
15556;DHT22;7879;48.660;9.116;2023-05-19T04:56:01;10.50;99.90
15556;DHT22;7879;48.660;9.116;2023-05-19T04:58:28;10.40;99.90
15556;DHT22;7879;48.660;9.116;2023-05-19T05:00:55;10.40;99.90
15556;DHT22;7879;48.660;9.116;2023-05-19T05:03:23;10.40;99.90
15556;DHT22;7879;48.660;9.116;2023-05-19T05:05:51;10.40;99.90
15556;DHT22;7879;48.660;9.116;2023-05-19T05:08:18;10.40;99.90
15556;DHT22;7879;48.660;9.116;2023-05-19T05:10:49;10.40;99.90
15556;DHT22;7879;48.660;9.116;2023-05-19T05:13:22;10.40;99.90
15556;DHT22;7879;48.660;9.116;2023-05-19T05:15:49;10.30;99.90
15556;DHT22;7879;48.660;9.116;2023-05-19T05:18:18;10.30;99.90
15556;DHT22;7879;48.660;9.116;2023-05-19T05:20:45;10.30;99.90
15556;DHT22;7879;48.660;9.116;2023-05-19T05:23:12;10.30;99.90
15556;DHT22;7879;48.660;9.116;2023-05-19T05:25:43;10.30;99.90
15556;DHT22;7879;48.660;9.116;2023-05-19T05:28:10;10.30;99.90
15556;DHT22;7879;48.660;9.116;2023-05-19T05:30:37;10.30;99.90
15556;DHT22;7879;48.660;9.116;2023-05-19T05:33:04;10.30;99.90
15556;DHT22;7879;48.660;9.116;2023-05-19T05:35:32;10.40;99.90
15556;DHT22;7879;48.660;9.116;2023-05-19T05:37:59;10.30;99.90
15556;DHT22;7879;48.660;9.116;2023-05-19T05:40:27;10.40;99.90
15556;DHT22;7879;48.660;9.116;2023-05-19T05:42:54;10.40;99.90
15556;DHT22;7879;48.660;9.116;2023-05-19T05:45:22;10.50;99.90
15556;DHT22;7879;48.660;9.116;2023-05-19T05:47:49;10.50;99.90
15556;DHT22;7879;48.660;9.116;2023-05-19T05:50:17;10.60;99.90
15556;DHT22;7879;48.660;9.116;2023-05-19T05:52:47;10.60;99.90
15556;DHT22;7879;48.660;9.116;2023-05-19T05:55:14;10.70;99.90
15556;DHT22;7879;48.660;9.116;2023-05-19T05:57:43;10.70;99.90
15556;DHT22;7879;48.660;9.116;2023-05-19T06:00:10;10.80;99.90
15556;DHT22;7879;48.660;9.116;2023-05-19T06:02:45;10.80;99.90
15556;DHT22;7879;48.660;9.116;2023-05-19T06:05:15;10.90;99.90
15556;DHT22;7879;48.660;9.116;2023-05-19T06:07:42;10.90;99.90
15556;DHT22;7879;48.660;9.116;2023-05-19T06:10:09;11.00;99.90
15556;DHT22;7879;48.660;9.116;2023-05-19T06:12:36;11.10;99.90
15556;DHT22;7879;48.660;9.116;2023-05-19T06:15:06;11.10;99.90
15556;DHT22;7879;48.660;9.116;2023-05-19T06:17:34;11.20;99.90
15556;DHT22;7879;48.660;9.116;2023-05-19T06:20:02;11.30;99.90
15556;DHT22;7879;48.660;9.116;2023-05-19T06:22:31;11.40;99.90
15556;DHT22;7879;48.660;9.116;2023-05-19T06:24:58;11.40;99.90
15556;DHT22;7879;48.660;9.116;2023-05-19T06:27:25;11.40;99.90
15556;DHT22;7879;48.660;9.116;2023-05-19T06:29:51;11.50;99.90
15556;DHT22;7879;48.660;9.116;2023-05-19T06:32:18;11.50;99.90
15556;DHT22;7879;48.660;9.116;2023-05-19T06:34:45;11.50;99.90
15556;DHT22;7879;48.660;9.116;2023-05-19T06:37:20;11.50;99.90
15556;DHT22;7879;48.660;9.116;2023-05-19T06:39:52;11.50;99.90
15556;DHT22;7879;48.660;9.116;2023-05-19T06:42:19;11.50;99.90
15556;DHT22;7879;48.660;9.116;2023-05-19T06:44:51;11.60;99.90
15556;DHT22;7879;48.660;9.116;2023-05-19T06:47:18;11.70;99.90
15556;DHT22;7879;48.660;9.116;2023-05-19T06:49:46;11.70;99.90
15556;DHT22;7879;48.660;9.116;2023-05-19T06:52:16;11.60;99.90
15556;DHT22;7879;48.660;9.116;2023-05-19T06:54:43;11.70;99.90
15556;DHT22;7879;48.660;9.116;2023-05-19T06:57:09;11.70;99.90
15556;DHT22;7879;48.660;9.116;2023-05-19T06:59:36;11.70;99.90
15556;DHT22;7879;48.660;9.116;2023-05-19T07:02:06;11.80;99.90
15556;DHT22;7879;48.660;9.116;2023-05-19T07:04:34;11.90;99.90
15556;DHT22;7879;48.660;9.116;2023-05-19T07:07:01;11.90;99.90
15556;DHT22;7879;48.660;9.116;2023-05-19T07:09:28;12.00;99.90
15556;DHT22;7879;48.660;9.116;2023-05-19T07:11:55;11.90;99.90
15556;DHT22;7879;48.660;9.116;2023-05-19T07:14:22;12.00;99.90
15556;DHT22;7879;48.660;9.116;2023-05-19T07:16:49;11.90;99.90
15556;DHT22;7879;48.660;9.116;2023-05-19T07:19:16;12.00;99.90
15556;DHT22;7879;48.660;9.116;2023-05-19T07:21:45;12.10;99.90
15556;DHT22;7879;48.660;9.116;2023-05-19T07:24:13;12.10;99.90
15556;DHT22;7879;48.660;9.116;2023-05-19T07:26:40;12.20;99.90
15556;DHT22;7879;48.660;9.116;2023-05-19T07:29:08;12.20;99.90
15556;DHT22;7879;48.660;9.116;2023-05-19T07:31:34;12.20;99.90
15556;DHT22;7879;48.660;9.116;2023-05-19T07:34:02;12.20;99.90
15556;DHT22;7879;48.660;9.116;2023-05-19T07:36:29;12.30;99.90
15556;DHT22;7879;48.660;9.116;2023-05-19T07:38:55;12.40;99.90
15556;DHT22;7879;48.660;9.116;2023-05-19T07:41:22;12.50;99.90
15556;DHT22;7879;48.660;9.116;2023-05-19T07:43:49;12.50;99.90
15556;DHT22;7879;48.660;9.116;2023-05-19T07:46:16;12.50;99.90
15556;DHT22;7879;48.660;9.116;2023-05-19T07:48:43;12.60;99.90
15556;DHT22;7879;48.660;9.116;2023-05-19T07:51:11;12.40;99.90
15556;DHT22;7879;48.660;9.116;2023-05-19T07:53:38;12.50;99.90
15556;DHT22;7879;48.660;9.116;2023-05-19T07:56:05;12.50;99.90
15556;DHT22;7879;48.660;9.116;2023-05-19T07:58:32;12.40;99.90
15556;DHT22;7879;48.660;9.116;2023-05-19T08:00:59;12.50;99.90
15556;DHT22;7879;48.660;9.116;2023-05-19T08:03:26;12.50;99.90
15556;DHT22;7879;48.660;9.116;2023-05-19T08:05:53;12.50;99.90
15556;DHT22;7879;48.660;9.116;2023-05-19T08:08:20;12.50;99.90
15556;DHT22;7879;48.660;9.116;2023-05-19T08:10:47;12.60;99.90
15556;DHT22;7879;48.660;9.116;2023-05-19T08:13:14;12.50;99.90
15556;DHT22;7879;48.660;9.116;2023-05-19T08:15:41;12.50;99.90
15556;DHT22;7879;48.660;9.116;2023-05-19T08:18:11;12.50;99.90
15556;DHT22;7879;48.660;9.116;2023-05-19T08:20:38;12.50;99.90
15556;DHT22;7879;48.660;9.116;2023-05-19T08:23:05;12.40;99.90
15556;DHT22;7879;48.660;9.116;2023-05-19T08:25:32;12.50;99.90
15556;DHT22;7879;48.660;9.116;2023-05-19T08:27:58;12.50;99.90
15556;DHT22;7879;48.660;9.116;2023-05-19T08:30:25;12.50;99.90
15556;DHT22;7879;48.660;9.116;2023-05-19T08:32:52;12.50;99.90
15556;DHT22;7879;48.660;9.116;2023-05-19T08:35:19;12.60;99.90
15556;DHT22;7879;48.660;9.116;2023-05-19T08:37:46;12.60;99.90
15556;DHT22;7879;48.660;9.116;2023-05-19T08:40:15;12.60;99.90
15556;DHT22;7879;48.660;9.116;2023-05-19T08:42:44;12.70;99.90
15556;DHT22;7879;48.660;9.116;2023-05-19T08:45:11;12.70;99.90
15556;DHT22;7879;48.660;9.116;2023-05-19T08:47:44;12.70;99.90
15556;DHT22;7879;48.660;9.116;2023-05-19T08:50:22;12.80;99.90
15556;DHT22;7879;48.660;9.116;2023-05-19T08:52:52;12.80;99.90
15556;DHT22;7879;48.660;9.116;2023-05-19T08:55:48;12.90;99.90
15556;DHT22;7879;48.660;9.116;2023-05-19T08:58:18;12.90;99.90
15556;DHT22;7879;48.660;9.116;2023-05-19T09:00:47;12.90;99.90
15556;DHT22;7879;48.660;9.116;2023-05-19T09:03:15;13.00;99.90
15556;DHT22;7879;48.660;9.116;2023-05-19T09:05:49;13.00;99.90
15556;DHT22;7879;48.660;9.116;2023-05-19T09:08:16;13.00;99.90
15556;DHT22;7879;48.660;9.116;2023-05-19T09:10:43;13.00;99.90
15556;DHT22;7879;48.660;9.116;2023-05-19T09:13:10;13.10;99.90
15556;DHT22;7879;48.660;9.116;2023-05-19T09:15:38;13.10;99.90
15556;DHT22;7879;48.660;9.116;2023-05-19T09:18:09;13.20;99.90
15556;DHT22;7879;48.660;9.116;2023-05-19T09:20:41;13.10;99.90
15556;DHT22;7879;48.660;9.116;2023-05-19T09:23:16;13.10;99.90
15556;DHT22;7879;48.660;9.116;2023-05-19T09:25:48;13.10;99.90
15556;DHT22;7879;48.660;9.116;2023-05-19T09:28:29;13.10;99.90
15556;DHT22;7879;48.660;9.116;2023-05-19T09:30:58;13.10;99.90
15556;DHT22;7879;48.660;9.116;2023-05-19T09:33:26;13.10;99.90
15556;DHT22;7879;48.660;9.116;2023-05-19T09:35:54;13.10;99.90
15556;DHT22;7879;48.660;9.116;2023-05-19T09:38:25;13.10;99.90
15556;DHT22;7879;48.660;9.116;2023-05-19T09:40:55;13.10;99.90
15556;DHT22;7879;48.660;9.116;2023-05-19T09:43:31;13.10;99.90
15556;DHT22;7879;48.660;9.116;2023-05-19T09:45:59;13.20;99.90
15556;DHT22;7879;48.660;9.116;2023-05-19T09:48:29;13.10;99.90
15556;DHT22;7879;48.660;9.116;2023-05-19T09:50:56;13.10;99.90
15556;DHT22;7879;48.660;9.116;2023-05-19T09:53:23;13.20;99.90
15556;DHT22;7879;48.660;9.116;2023-05-19T09:55:54;13.10;99.90
15556;DHT22;7879;48.660;9.116;2023-05-19T09:58:25;13.10;99.90
15556;DHT22;7879;48.660;9.116;2023-05-19T10:00:52;13.10;99.90
15556;DHT22;7879;48.660;9.116;2023-05-19T10:03:22;13.10;99.90
15556;DHT22;7879;48.660;9.116;2023-05-19T10:05:52;13.10;99.90
15556;DHT22;7879;48.660;9.116;2023-05-19T10:08:19;13.10;99.90
15556;DHT22;7879;48.660;9.116;2023-05-19T10:10:47;13.10;99.90
15556;DHT22;7879;48.660;9.116;2023-05-19T10:13:15;13.10;99.90
15556;DHT22;7879;48.660;9.116;2023-05-19T10:15:42;13.10;99.90
15556;DHT22;7879;48.660;9.116;2023-05-19T10:18:25;13.10;99.90
15556;DHT22;7879;48.660;9.116;2023-05-19T10:20:53;13.10;99.90
15556;DHT22;7879;48.660;9.116;2023-05-19T10:23:19;13.10;99.90
15556;DHT22;7879;48.660;9.116;2023-05-19T10:25:49;13.10;99.90
15556;DHT22;7879;48.660;9.116;2023-05-19T10:28:17;13.10;99.90
15556;DHT22;7879;48.660;9.116;2023-05-19T10:30:49;13.10;99.90
15556;DHT22;7879;48.660;9.116;2023-05-19T10:33:23;13.10;99.90
15556;DHT22;7879;48.660;9.116;2023-05-19T10:38:52;13.00;99.90
15556;DHT22;7879;48.660;9.116;2023-05-19T10:41:36;13.00;99.90
15556;DHT22;7879;48.660;9.116;2023-05-19T10:46:43;13.10;99.90
15556;DHT22;7879;48.660;9.116;2023-05-19T10:49:19;13.20;99.90
15556;DHT22;7879;48.660;9.116;2023-05-19T10:51:47;13.20;99.90
15556;DHT22;7879;48.660;9.116;2023-05-19T10:54:14;13.10;99.90
15556;DHT22;7879;48.660;9.116;2023-05-19T10:56:43;13.10;99.90
15556;DHT22;7879;48.660;9.116;2023-05-19T10:59:35;13.20;99.90
15556;DHT22;7879;48.660;9.116;2023-05-19T11:02:07;13.30;99.90
15556;DHT22;7879;48.660;9.116;2023-05-19T11:04:48;13.30;99.90
15556;DHT22;7879;48.660;9.116;2023-05-19T11:07:20;13.30;99.90
15556;DHT22;7879;48.660;9.116;2023-05-19T11:09:49;13.30;99.90
15556;DHT22;7879;48.660;9.116;2023-05-19T11:12:21;13.30;99.90
15556;DHT22;7879;48.660;9.116;2023-05-19T11:14:54;13.30;99.90
15556;DHT22;7879;48.660;9.116;2023-05-19T11:17:23;13.30;99.90
15556;DHT22;7879;48.660;9.116;2023-05-19T11:19:55;13.30;99.90
15556;DHT22;7879;48.660;9.116;2023-05-19T11:22:25;13.30;99.90
15556;DHT22;7879;48.660;9.116;2023-05-19T11:24:56;13.30;99.90
15556;DHT22;7879;48.660;9.116;2023-05-19T11:27:33;13.30;99.90
15556;DHT22;7879;48.660;9.116;2023-05-19T11:30:08;13.30;99.90
15556;DHT22;7879;48.660;9.116;2023-05-19T11:32:37;13.30;99.90
15556;DHT22;7879;48.660;9.116;2023-05-19T11:35:05;13.30;99.90
15556;DHT22;7879;48.660;9.116;2023-05-19T11:37:33;13.30;99.90
15556;DHT22;7879;48.660;9.116;2023-05-19T11:40:01;13.30;99.90
15556;DHT22;7879;48.660;9.116;2023-05-19T11:42:30;13.30;99.90
15556;DHT22;7879;48.660;9.116;2023-05-19T11:44:57;13.40;99.90
15556;DHT22;7879;48.660;9.116;2023-05-19T11:47:24;13.40;99.90
15556;DHT22;7879;48.660;9.116;2023-05-19T11:49:55;13.40;99.90
15556;DHT22;7879;48.660;9.116;2023-05-19T11:52:23;13.40;99.90
15556;DHT22;7879;48.660;9.116;2023-05-19T11:54:50;13.30;99.90
15556;DHT22;7879;48.660;9.116;2023-05-19T11:57:18;13.30;99.90
15556;DHT22;7879;48.660;9.116;2023-05-19T11:59:45;13.40;99.90
15556;DHT22;7879;48.660;9.116;2023-05-19T12:02:19;13.40;99.90
15556;DHT22;7879;48.660;9.116;2023-05-19T12:04:48;13.40;99.90
15556;DHT22;7879;48.660;9.116;2023-05-19T12:07:16;13.40;99.90
15556;DHT22;7879;48.660;9.116;2023-05-19T12:09:47;13.50;99.90
15556;DHT22;7879;48.660;9.116;2023-05-19T12:12:18;13.50;99.90
15556;DHT22;7879;48.660;9.116;2023-05-19T12:14:47;13.50;99.90
15556;DHT22;7879;48.660;9.116;2023-05-19T12:17:15;13.50;99.90
15556;DHT22;7879;48.660;9.116;2023-05-19T12:19:44;13.50;99.90
15556;DHT22;7879;48.660;9.116;2023-05-19T12:22:12;13.50;99.90
15556;DHT22;7879;48.660;9.116;2023-05-19T12:24:40;13.50;99.90
15556;DHT22;7879;48.660;9.116;2023-05-19T12:27:19;13.50;99.90
15556;DHT22;7879;48.660;9.116;2023-05-19T12:29:50;13.50;99.90
15556;DHT22;7879;48.660;9.116;2023-05-19T12:32:18;13.50;99.90
15556;DHT22;7879;48.660;9.116;2023-05-19T12:34:49;13.50;99.90
15556;DHT22;7879;48.660;9.116;2023-05-19T12:37:15;13.40;99.90
15556;DHT22;7879;48.660;9.116;2023-05-19T12:39:43;13.40;99.90
15556;DHT22;7879;48.660;9.116;2023-05-19T12:42:10;13.40;99.90
15556;DHT22;7879;48.660;9.116;2023-05-19T12:44:46;13.50;99.90
15556;DHT22;7879;48.660;9.116;2023-05-19T12:47:14;13.50;99.90
15556;DHT22;7879;48.660;9.116;2023-05-19T12:52:22;13.50;99.90
15556;DHT22;7879;48.660;9.116;2023-05-19T12:54:57;13.50;99.90
15556;DHT22;7879;48.660;9.116;2023-05-19T12:57:25;13.60;99.90
15556;DHT22;7879;48.660;9.116;2023-05-19T12:59:58;13.50;99.90
15556;DHT22;7879;48.660;9.116;2023-05-19T13:02:25;13.50;99.90
15556;DHT22;7879;48.660;9.116;2023-05-19T13:04:53;13.50;99.90
15556;DHT22;7879;48.660;9.116;2023-05-19T13:07:20;13.50;99.90
15556;DHT22;7879;48.660;9.116;2023-05-19T13:09:47;13.40;99.90
15556;DHT22;7879;48.660;9.116;2023-05-19T13:12:14;13.40;99.90
15556;DHT22;7879;48.660;9.116;2023-05-19T13:14:41;13.40;99.90
15556;DHT22;7879;48.660;9.116;2023-05-19T13:17:09;13.50;99.90
15556;DHT22;7879;48.660;9.116;2023-05-19T13:19:35;13.60;99.90
15556;DHT22;7879;48.660;9.116;2023-05-19T13:22:02;13.60;99.90
15556;DHT22;7879;48.660;9.116;2023-05-19T13:24:29;13.60;99.90
15556;DHT22;7879;48.660;9.116;2023-05-19T13:26:56;13.60;99.90
15556;DHT22;7879;48.660;9.116;2023-05-19T13:29:23;13.60;99.90
15556;DHT22;7879;48.660;9.116;2023-05-19T13:31:50;13.50;99.90
15556;DHT22;7879;48.660;9.116;2023-05-19T13:34:16;13.60;99.90
15556;DHT22;7879;48.660;9.116;2023-05-19T13:36:45;13.50;99.90
15556;DHT22;7879;48.660;9.116;2023-05-19T13:39:13;13.50;99.90
15556;DHT22;7879;48.660;9.116;2023-05-19T13:41:41;13.50;99.90
15556;DHT22;7879;48.660;9.116;2023-05-19T13:44:07;13.50;99.90
15556;DHT22;7879;48.660;9.116;2023-05-19T13:46:34;13.50;99.90
15556;DHT22;7879;48.660;9.116;2023-05-19T13:49:11;13.50;99.90
15556;DHT22;7879;48.660;9.116;2023-05-19T13:51:41;13.50;99.90
15556;DHT22;7879;48.660;9.116;2023-05-19T13:54:08;13.50;99.90
15556;DHT22;7879;48.660;9.116;2023-05-19T13:56:35;13.50;99.90
15556;DHT22;7879;48.660;9.116;2023-05-19T13:59:02;13.60;99.90
15556;DHT22;7879;48.660;9.116;2023-05-19T14:01:29;13.60;99.90
15556;DHT22;7879;48.660;9.116;2023-05-19T14:03:57;13.60;99.90
15556;DHT22;7879;48.660;9.116;2023-05-19T14:06:24;13.70;99.90
15556;DHT22;7879;48.660;9.116;2023-05-19T14:08:50;13.70;99.90
15556;DHT22;7879;48.660;9.116;2023-05-19T14:11:18;13.70;99.90
15556;DHT22;7879;48.660;9.116;2023-05-19T14:13:47;13.80;99.90
15556;DHT22;7879;48.660;9.116;2023-05-19T14:16:18;13.80;99.90
15556;DHT22;7879;48.660;9.116;2023-05-19T14:18:46;13.80;99.90
15556;DHT22;7879;48.660;9.116;2023-05-19T14:21:14;13.80;99.90
15556;DHT22;7879;48.660;9.116;2023-05-19T14:23:41;13.80;99.90
15556;DHT22;7879;48.660;9.116;2023-05-19T14:26:08;13.80;99.90
15556;DHT22;7879;48.660;9.116;2023-05-19T14:28:35;13.80;99.90
15556;DHT22;7879;48.660;9.116;2023-05-19T14:31:02;13.90;99.90
15556;DHT22;7879;48.660;9.116;2023-05-19T14:33:29;13.90;99.90
15556;DHT22;7879;48.660;9.116;2023-05-19T14:36:01;13.90;99.90
15556;DHT22;7879;48.660;9.116;2023-05-19T14:38:27;13.90;99.90
15556;DHT22;7879;48.660;9.116;2023-05-19T14:40:55;13.90;99.90
15556;DHT22;7879;48.660;9.116;2023-05-19T14:43:22;14.00;99.90
15556;DHT22;7879;48.660;9.116;2023-05-19T14:45:49;14.00;99.90
15556;DHT22;7879;48.660;9.116;2023-05-19T14:48:16;14.00;99.90
15556;DHT22;7879;48.660;9.116;2023-05-19T14:50:43;14.00;99.90
15556;DHT22;7879;48.660;9.116;2023-05-19T14:53:11;14.00;99.90
15556;DHT22;7879;48.660;9.116;2023-05-19T14:55:38;14.00;99.90
15556;DHT22;7879;48.660;9.116;2023-05-19T14:58:05;14.00;99.90
15556;DHT22;7879;48.660;9.116;2023-05-19T15:00:46;14.00;99.90
15556;DHT22;7879;48.660;9.116;2023-05-19T15:03:13;13.90;99.90
15556;DHT22;7879;48.660;9.116;2023-05-19T15:05:40;13.90;99.90
15556;DHT22;7879;48.660;9.116;2023-05-19T15:08:07;13.90;99.90
15556;DHT22;7879;48.660;9.116;2023-05-19T15:10:33;13.90;99.90
15556;DHT22;7879;48.660;9.116;2023-05-19T15:13:00;13.90;99.90
15556;DHT22;7879;48.660;9.116;2023-05-19T15:15:27;13.90;99.90
15556;DHT22;7879;48.660;9.116;2023-05-19T15:17:54;13.90;99.90
15556;DHT22;7879;48.660;9.116;2023-05-19T15:20:21;13.90;99.90
15556;DHT22;7879;48.660;9.116;2023-05-19T15:22:47;13.90;99.90
15556;DHT22;7879;48.660;9.116;2023-05-19T15:25:14;13.90;99.90
15556;DHT22;7879;48.660;9.116;2023-05-19T15:27:41;13.90;99.90
15556;DHT22;7879;48.660;9.116;2023-05-19T15:30:08;14.00;99.90
15556;DHT22;7879;48.660;9.116;2023-05-19T15:32:35;13.90;99.90
15556;DHT22;7879;48.660;9.116;2023-05-19T15:35:02;13.90;99.90
15556;DHT22;7879;48.660;9.116;2023-05-19T15:37:29;13.90;99.90
15556;DHT22;7879;48.660;9.116;2023-05-19T15:39:55;13.90;99.90
15556;DHT22;7879;48.660;9.116;2023-05-19T15:42:22;13.90;99.90
15556;DHT22;7879;48.660;9.116;2023-05-19T15:44:49;13.90;99.90
15556;DHT22;7879;48.660;9.116;2023-05-19T15:47:16;13.90;99.90
15556;DHT22;7879;48.660;9.116;2023-05-19T15:49:42;13.90;99.90
15556;DHT22;7879;48.660;9.116;2023-05-19T15:52:09;14.00;99.90
15556;DHT22;7879;48.660;9.116;2023-05-19T15:54:36;14.00;99.90
15556;DHT22;7879;48.660;9.116;2023-05-19T15:57:03;14.00;99.90
15556;DHT22;7879;48.660;9.116;2023-05-19T15:59:30;14.00;99.90
15556;DHT22;7879;48.660;9.116;2023-05-19T16:01:56;14.00;99.90
15556;DHT22;7879;48.660;9.116;2023-05-19T16:04:24;14.00;99.90
15556;DHT22;7879;48.660;9.116;2023-05-19T16:06:50;14.10;99.90
15556;DHT22;7879;48.660;9.116;2023-05-19T16:09:17;14.00;99.90
15556;DHT22;7879;48.660;9.116;2023-05-19T16:11:44;14.00;99.90
15556;DHT22;7879;48.660;9.116;2023-05-19T16:14:11;13.90;99.90
15556;DHT22;7879;48.660;9.116;2023-05-19T16:16:38;14.00;99.90
15556;DHT22;7879;48.660;9.116;2023-05-19T16:19:05;14.00;99.90
15556;DHT22;7879;48.660;9.116;2023-05-19T16:21:32;14.00;99.90